Thursday, October 30, 2014
23:00 UTC
  |  Log In   |  Register Free
Airport Search:

Enid Woodring Regional Airport
(KWDG)

FAA data valid effective September 18, 2014 - November 13, 2014 (unless otherwise noted).

 
 
 
 
 
 
 
 
 
 
 
 
 
 

Current Aviation Weather for Enid Woodring Regional Airport (KWDG)

The most recent METAR observation for KWDG was updated at: 2218
METAR Summary (Translated METAR)
KWDG
302150Z 33015G23KT 10SM SKC 24/03 A3011
KEND
302156Z 34014KT 10SM CLR 23/02 A3013 RMK AO2A SLP198
(6.6 nm SW from KWDG)
KBKN
302155Z AUTO 34019G24KT 10SM CLR 23/01 A3010 RMK AO2
(30.6 nm NE from KWDG)
TAF Summary (Translated TAF)
KEND
(6.6 nm SW from KWDG)
3020/3124 36010G20KT 9999 FEW100 QNH3012INS BECMG 3023/3024 35008KT 9999 SKC QNH3015INS BECMG 3111/3112 35010KT 9999 FEW020 QNH3035INS BECMG 3114/3115 01012G18KT 9999 SKC QNH3040INS TX25/3021Z TN06/3112Z AMD 302007
  Airport Weather Conditions for KWDG

 Current Weather at WDG
75° F
Clear
North winds at 17.3 mph
WDG NOAA Radar

Pressure: 30.12 in
Humidity: 25%
Wind: North at 17.3 MPH (15 KT)
Dew Point: 37.4°F
Visibility: 10.00 mi


Airport Weather Forecast for KWDG

Translated METAR and TAF for KWDG
Translated METAR for KWDG (2255 UTC 30 October 2014)
found at http://aviationweather.gov/adds/metars/
 
METAR text: KWDG 302250Z 33014G20KT 10SM SKC 23/02 A3012
Conditions at: KWDG (ENID/WOODRING , OK, US) observed 2250 UTC 30 October 2014
Temperature: 23.0°C (73°F)
Dewpoint: 2.0°C (36°F) [RH = 25%]
Pressure (altimeter): 30.12 inches Hg (1020.1 mb)
Winds: from the NNW (330 degrees) at 16 MPH (14 knots; 7.3 m/s)
gusting to 23 MPH (20 knots; 10.4 m/s)
Visibility: 10 or more miles (16+ km)
Ceiling: at least 12,000 feet AGL
Clouds: clear skies
Weather: no significant weather observed at this time
Translated TAF for KWDG

There is no translated TAF available for this airport

Find All Airport Services Find A Hotel Find A Rental Car Find A Golf Course Find A Restaurant $100 Hamburger



FBO's on the Field
FBO Company Facility Photos Services Transportation Aviation Fuel Prices: Prices include tax
Catering Weather Repair Courtesy Rental Type 100LL JetA JetA+ MOGAS 8087
 
Enid Woodring Regional Airport

This FBO has not yet been rated
FS:Phillips 66
Last Updated: Oct-30
Login to update fuel prices
SS:
Contact Enid Woodring Regional AirportMore FBO Information
 
Add another FBO Facility Photos Catering Weather Repair Courtesy Rental Type 100LL JetA JetA+ MOGAS 8087
Services Transportation Aviation Fuel Prices: Prices include tax


model-print
model-print
model-print
model-print